Time;durP1;ratioP1;P1;durP2;ratioP2;P2;SDS_P1;SDS_P2;PMS_P1;PMS_P2;Temp;Humidity;BMP_temperature;BMP_pressure;BME280_temperature;BME280_humidity;BME280_pressure;Samples;Min_cycle;Max_cycle;Signal;HPM_P1;HPM_P2
2023/06/28 00:00:34;;;;;;;3.63;2.03;;;;;;;23.31;46.42;100099.97;5012025;28;20046;-67
2023/06/28 00:03:11;;;;;;;4.45;1.90;;;;;;;23.29;46.37;100093.00;5011899;28;20045;-67
2023/06/28 00:05:41;;;;;;;3.63;1.98;;;;;;;23.29;46.34;100088.41;5011542;28;20042;-68
2023/06/28 00:08:09;;;;;;;3.40;1.83;;;;;;;23.28;46.31;100094.88;5011908;28;20050;-68
2023/06/28 00:10:37;;;;;;;5.65;1.92;;;;;;;23.28;46.40;100096.75;5011892;28;20557;-67
2023/06/28 00:13:05;;;;;;;3.42;1.88;;;;;;;23.28;46.26;100097.59;5011906;28;20085;-68
2023/06/28 00:15:34;;;;;;;3.42;1.70;;;;;;;23.27;46.32;100095.91;5011033;28;20103;-67
2023/06/28 00:18:02;;;;;;;4.15;2.00;;;;;;;23.27;46.40;100090.47;5011572;28;20454;-67
2023/06/28 00:20:31;;;;;;;3.25;1.70;;;;;;;23.27;46.27;100093.19;5011511;28;20495;-66
2023/06/28 00:23:00;;;;;;;3.05;1.70;;;;;;;23.27;46.67;100085.03;5011829;28;20466;-69
2023/06/28 00:25:32;;;;;;;4.32;2.05;;;;;;;23.27;46.42;100085.03;5011690;28;20149;-67
2023/06/28 00:28:00;;;;;;;4.03;2.15;;;;;;;23.27;46.55;100085.03;5011663;28;20050;-67
2023/06/28 00:30:28;;;;;;;3.38;1.90;;;;;;;23.27;46.58;100087.75;5011531;28;20137;-67
2023/06/28 00:32:56;;;;;;;2.45;1.80;;;;;;;23.27;46.33;100082.31;5011403;28;20053;-67
2023/06/28 00:35:24;;;;;;;3.17;1.60;;;;;;;23.27;46.33;100090.47;5011699;28;20074;-67
2023/06/28 00:37:53;;;;;;;4.68;1.80;;;;;;;23.28;46.37;100097.59;5011420;28;20137;-67
2023/06/28 00:40:23;;;;;;;2.90;1.70;;;;;;;23.27;46.31;100090.47;5011363;28;20045;-67
2023/06/28 00:42:51;;;;;;;4.43;1.60;;;;;;;23.26;46.27;100096.94;5011446;28;20046;-67
2023/06/28 00:45:19;;;;;;;3.25;1.90;;;;;;;23.26;46.41;100088.78;5011117;28;20094;-67
2023/06/28 00:47:48;;;;;;;4.55;1.88;;;;;;;23.25;46.41;100084.34;5011334;28;20057;-67
2023/06/28 00:50:18;;;;;;;3.13;1.90;;;;;;;23.25;46.10;100081.59;5011477;28;20084;-67
2023/06/28 00:52:46;;;;;;;3.08;1.75;;;;;;;23.24;46.21;100079.91;5011179;28;20053;-67
2023/06/28 00:55:15;;;;;;;3.25;1.80;;;;;;;23.25;46.22;100080.75;5011286;28;20141;-67
2023/06/28 00:57:44;;;;;;;4.30;1.88;;;;;;;23.23;46.09;100083.66;5011225;28;20072;-68
2023/06/28 01:00:13;;;;;;;3.38;1.80;;;;;;;23.23;46.22;100088.25;5011228;28;20451;-68
2023/06/28 01:02:44;;;;;;;3.65;1.73;;;;;;;23.23;46.03;100088.25;5011398;28;20048;-67
2023/06/28 01:05:16;;;;;;;3.22;1.70;;;;;;;23.22;46.19;100090.13;5011290;28;20050;-67
2023/06/28 01:07:47;;;;;;;4.43;1.98;;;;;;;23.21;46.16;100085.72;5011173;28;20104;-68
2023/06/28 01:10:17;;;;;;;3.53;1.92;;;;;;;23.21;46.27;100093.88;5011127;28;20056;-68
2023/06/28 01:12:48;;;;;;;3.10;2.00;;;;;;;23.22;46.29;100097.44;5011215;28;20449;-68
2023/06/28 01:15:17;;;;;;;3.90;1.95;;;;;;;23.22;46.27;100090.13;5011388;28;20042;-68
2023/06/28 01:17:45;;;;;;;2.55;1.58;;;;;;;23.21;46.39;100083.00;5011107;28;20049;-68
2023/06/28 01:20:14;;;;;;;3.30;1.77;;;;;;;23.21;46.17;100087.59;5011177;28;20061;-68
2023/06/28 01:22:52;;;;;;;3.03;1.80;;;;;;;23.21;46.32;100084.88;5010995;28;20124;-68
2023/06/28 01:25:20;;;;;;;2.30;1.40;;;;;;;23.22;46.41;100089.28;5011236;28;20050;-68
2023/06/28 01:27:50;;;;;;;3.97;1.90;;;;;;;23.22;46.24;100094.72;5013123;28;20061;-68
2023/06/28 01:30:23;;;;;;;5.28;2.10;;;;;;;23.21;46.36;100093.88;5014629;28;20046;-68
2023/06/28 01:32:52;;;;;;;3.33;1.77;;;;;;;23.21;46.14;100093.88;5014676;28;20042;-68
2023/06/28 01:35:20;;;;;;;3.00;1.77;;;;;;;23.20;46.16;100085.91;5014486;28;20046;-68
2023/06/28 01:37:51;;;;;;;3.30;1.85;;;;;;;23.19;46.11;100087.78;5014393;28;20470;-68
2023/06/28 01:40:20;;;;;;;2.50;1.60;;;;;;;23.19;45.91;100092.38;5014612;28;20104;-68
2023/06/28 01:42:49;;;;;;;2.97;1.90;;;;;;;23.17;45.87;100103.44;5014464;28;20054;-68
2023/06/28 01:45:17;;;;;;;3.30;1.80;;;;;;;23.16;45.75;100093.56;5014294;28;20069;-67
2023/06/28 01:47:45;;;;;;;4.65;2.00;;;;;;;23.15;45.78;100102.75;5014240;28;20052;-67
2023/06/28 01:50:15;;;;;;;3.05;1.73;;;;;;;23.14;45.80;100106.50;5014184;28;20136;-67
2023/06/28 01:52:46;;;;;;;2.85;1.75;;;;;;;23.14;45.73;100109.22;5014074;28;20077;-66
2023/06/28 01:55:15;;;;;;;2.97;1.85;;;;;;;23.14;45.72;100114.66;5014159;28;20100;-67
2023/06/28 01:57:45;;;;;;;3.17;1.80;;;;;;;23.14;45.63;100101.91;5014018;28;20056;-66
2023/06/28 02:00:15;;;;;;;3.60;1.90;;;;;;;23.13;45.81;100096.66;5014556;28;20046;-67
2023/06/28 02:02:43;;;;;;;2.63;1.50;;;;;;;23.13;45.83;100088.47;5013879;28;20411;-67
2023/06/28 02:05:11;;;;;;;3.67;1.70;;;;;;;23.12;45.43;100087.63;5014180;28;20046;-67
2023/06/28 02:07:39;;;;;;;3.75;1.70;;;;;;;23.12;45.49;100084.91;5013797;28;20111;-68
2023/06/28 02:10:10;;;;;;;3.75;1.75;;;;;;;23.11;45.54;100075.06;5013931;28;20050;-68
2023/06/28 02:12:39;;;;;;;3.78;1.85;;;;;;;23.10;45.41;100073.38;5013638;28;20412;-68
2023/06/28 02:15:08;;;;;;;3.83;1.90;;;;;;;23.12;45.57;100081.34;5013598;28;20078;-67
2023/06/28 02:17:36;;;;;;;4.38;1.90;;;;;;;23.10;45.51;100077.97;5013978;28;20414;-66
2023/06/28 02:20:08;;;;;;;4.53;1.80;;;;;;;23.10;45.65;100077.97;5013816;28;20049;-66
2023/06/28 02:22:37;;;;;;;3.78;1.77;;;;;;;23.10;45.47;100076.09;5013486;28;20050;-66
2023/06/28 02:25:06;;;;;;;3.60;1.80;;;;;;;23.10;45.32;100080.69;5013543;28;20053;-68
2023/06/28 02:27:34;;;;;;;2.03;1.50;;;;;;;23.10;45.54;100077.97;5013412;28;20054;-67
2023/06/28 02:30:04;;;;;;;3.72;2.10;;;;;;;23.10;45.59;100078.81;5013682;28;20141;-67
2023/06/28 02:32:32;;;;;;;2.97;1.80;;;;;;;23.10;45.39;100080.69;5013454;28;20049;-67
2023/06/28 02:35:00;;;;;;;3.05;1.83;;;;;;;23.11;45.50;100082.38;5013210;28;20625;-67
2023/06/28 02:37:28;;;;;;;4.07;1.70;;;;;;;23.10;45.65;100077.97;5013378;28;20125;-66
2023/06/28 02:39:57;;;;;;;3.25;1.90;;;;;;;23.09;45.52;100076.28;5012861;28;20060;-66
2023/06/28 02:42:25;;;;;;;2.40;1.60;;;;;;;23.10;45.38;100077.97;5013197;28;20058;-67
2023/06/28 02:44:53;;;;;;;3.20;1.73;;;;;;;23.09;45.60;100076.28;5013375;28;20104;-66
2023/06/28 02:47:23;;;;;;;4.25;1.70;;;;;;;23.08;45.47;100074.56;5013151;28;20105;-66
2023/06/28 02:49:51;;;;;;;4.38;1.85;;;;;;;23.07;45.83;100075.59;5013080;28;20133;-67
2023/06/28 02:52:19;;;;;;;2.90;1.60;;;;;;;23.07;45.62;100073.72;5012928;28;20054;-66
2023/06/28 02:54:47;;;;;;;2.80;1.80;;;;;;;23.07;45.69;100078.31;5012940;28;20046;-67
2023/06/28 02:57:15;;;;;;;2.45;1.65;;;;;;;23.07;45.56;100075.59;5012880;28;20467;-68
2023/06/28 02:59:43;;;;;;;3.35;1.85;;;;;;;23.06;45.53;100082.88;5013271;28;20050;-67
2023/06/28 03:02:15;;;;;;;3.92;2.10;;;;;;;23.07;45.99;100081.06;5013142;28;20403;-67
2023/06/28 03:04:45;;;;;;;3.13;1.83;;;;;;;23.05;45.57;100077.63;5012817;28;20058;-66
2023/06/28 03:07:14;;;;;;;3.25;1.98;;;;;;;23.04;45.65;100082.22;5012710;28;20077;-66
2023/06/28 03:09:42;;;;;;;2.92;1.80;;;;;;;23.04;45.82;100078.66;5012516;28;20513;-67
2023/06/28 03:12:11;;;;;;;3.55;1.95;;;;;;;23.04;45.62;100078.66;5012984;28;20061;-66
2023/06/28 03:14:39;;;;;;;3.58;1.95;;;;;;;23.03;45.90;100076.97;5012561;28;20050;-66
2023/06/28 03:17:08;;;;;;;3.33;1.88;;;;;;;23.03;45.96;100076.97;5012678;28;20092;-67
2023/06/28 03:19:37;;;;;;;3.47;1.80;;;;;;;23.03;45.57;100085.13;5012625;28;20054;-67
2023/06/28 03:22:06;;;;;;;3.25;2.05;;;;;;;23.04;45.63;100081.38;5012791;28;20092;-67
2023/06/28 03:24:35;;;;;;;3.25;1.80;;;;;;;23.03;45.77;100083.25;5012661;28;20052;-67
2023/06/28 03:27:05;;;;;;;2.60;1.52;;;;;;;23.03;45.70;100082.41;5012444;28;20050;-66
2023/06/28 03:29:33;;;;;;;3.15;1.63;;;;;;;23.03;45.73;100079.69;5012494;28;20046;-67
2023/06/28 03:32:01;;;;;;;4.40;2.00;;;;;;;23.02;45.84;100078.84;5012393;28;20042;-67
2023/06/28 03:34:30;;;;;;;4.47;1.80;;;;;;;23.02;45.93;100078.84;5012320;28;20046;-67
2023/06/28 03:36:58;;;;;;;3.45;2.00;;;;;;;23.03;45.76;100079.69;5012194;28;20483;-67
2023/06/28 03:39:32;;;;;;;2.70;1.77;;;;;;;23.03;45.80;100079.69;5012496;28;20049;-68
2023/06/28 03:42:01;;;;;;;3.05;1.88;;;;;;;23.03;45.67;100079.69;5014225;28;20152;-66
2023/06/28 03:44:29;;;;;;;2.80;1.52;;;;;;;23.03;45.76;100076.97;5031879;28;20049;-67
2023/06/28 03:46:57;;;;;;;3.85;2.00;;;;;;;23.04;45.77;100081.38;5031840;28;20056;-66
2023/06/28 03:49:25;;;;;;;4.60;2.42;;;;;;;23.03;45.63;100082.41;5031674;28;20396;-68
2023/06/28 03:51:53;;;;;;;4.15;2.00;;;;;;;23.03;45.91;100076.97;5031699;28;20095;-67
2023/06/28 03:54:21;;;;;;;3.85;1.90;;;;;;;23.02;45.70;100080.72;5031733;28;20541;-68
2023/06/28 03:56:51;;;;;;;3.80;2.20;;;;;;;23.03;45.70;100074.25;5031525;28;20046;-67
2023/06/28 03:59:19;;;;;;;3.13;1.80;;;;;;;23.02;45.84;100076.13;5031595;28;20056;-67
2023/06/28 04:01:47;;;;;;;3.45;1.95;;;;;;;23.03;45.76;100076.97;5031456;28;20064;-68
2023/06/28 04:04:16;;;;;;;3.72;2.30;;;;;;;23.02;45.80;100075.28;5031638;28;20100;-67
2023/06/28 04:06:45;;;;;;;4.35;2.22;;;;;;;23.01;45.84;100079.03;5031447;28;20131;-67
2023/06/28 04:09:13;;;;;;;3.72;2.40;;;;;;;23.01;45.91;100085.31;5031515;28;20049;-67
2023/06/28 04:11:41;;;;;;;3.13;2.00;;;;;;;23.02;45.92;100089.72;5031642;28;20434;-67
2023/06/28 04:14:11;;;;;;;3.47;2.10;;;;;;;23.02;45.94;100084.28;5031419;28;20045;-67
2023/06/28 04:16:39;;;;;;;5.22;2.28;;;;;;;23.03;45.69;100093.28;5031139;28;20046;-67
2023/06/28 04:19:07;;;;;;;4.45;2.22;;;;;;;23.02;45.84;100092.44;5031144;28;20487;-67
2023/06/28 04:21:35;;;;;;;3.67;2.00;;;;;;;23.02;45.79;100092.44;5031348;28;20060;-67
2023/06/28 04:24:04;;;;;;;4.30;2.05;;;;;;;23.02;46.09;100099.75;5031492;28;20464;-66
2023/06/28 04:26:35;;;;;;;5.03;2.10;;;;;;;23.02;46.09;100103.31;5031496;28;20050;-68
2023/06/28 04:29:04;;;;;;;3.83;2.00;;;;;;;23.02;45.85;100113.34;5031147;28;20053;-68
2023/06/28 04:31:34;;;;;;;4.13;2.00;;;;;;;23.02;45.78;100106.03;5031444;28;20127;-68
2023/06/28 04:34:05;;;;;;;3.63;2.20;;;;;;;23.02;45.88;100102.47;5031293;28;20367;-68
2023/06/28 04:36:33;;;;;;;3.72;1.83;;;;;;;23.01;45.81;100098.06;5031306;28;20067;-67
2023/06/28 04:39:03;;;;;;;5.55;2.10;;;;;;;23.02;45.99;100103.31;5030945;28;20045;-66
2023/06/28 04:41:31;;;;;;;3.25;1.77;;;;;;;23.02;45.81;100110.63;5030991;28;20053;-67
2023/06/28 04:43:59;;;;;;;6.18;2.10;;;;;;;23.02;45.84;100113.34;5031076;28;20478;-66
2023/06/28 04:46:28;;;;;;;3.47;1.90;;;;;;;23.02;45.85;100107.91;5031171;28;20042;-67
2023/06/28 04:48:57;;;;;;;3.63;1.83;;;;;;;23.01;45.92;100107.06;5031130;28;20056;-67
2023/06/28 04:51:26;;;;;;;4.70;2.20;;;;;;;23.01;45.87;100107.06;5030813;28;20084;-66
2023/06/28 04:53:54;;;;;;;5.57;2.10;;;;;;;23.02;46.00;100105.19;5030886;28;20482;-67
2023/06/28 04:56:22;;;;;;;4.43;1.98;;;;;;;23.02;45.95;100116.06;5030809;28;20060;-67
2023/06/28 04:58:50;;;;;;;4.13;2.03;;;;;;;23.03;45.94;100120.50;5030980;28;20049;-66
2023/06/28 05:01:18;;;;;;;3.80;2.00;;;;;;;23.02;45.93;100116.91;5031091;28;20111;-67
2023/06/28 05:03:47;;;;;;;3.88;1.90;;;;;;;23.03;46.11;100123.22;5034634;28;20153;-66
2023/06/28 05:06:19;;;;;;;5.80;2.13;;;;;;;23.04;45.98;100127.63;5017545;28;20046;-67
2023/06/28 05:08:47;;;;;;;3.70;1.92;;;;;;;23.04;46.07;100122.19;5034620;28;20143;-66
2023/06/28 05:11:15;;;;;;;3.25;1.98;;;;;;;23.04;46.11;100133.06;5034883;28;20065;-66
2023/06/28 05:13:43;;;;;;;3.55;2.00;;;;;;;23.05;46.12;100140.19;5034502;28;20049;-66
2023/06/28 05:16:12;;;;;;;3.03;1.77;;;;;;;23.05;46.11;100129.31;5034755;28;20462;-67
2023/06/28 05:18:40;;;;;;;3.80;1.75;;;;;;;23.05;45.88;100134.75;5034068;28;20129;-66
2023/06/28 05:21:08;;;;;;;4.78;2.30;;;;;;;23.05;46.26;100134.75;5034164;28;20061;-67
2023/06/28 05:23:38;;;;;;;3.45;1.90;;;;;;;23.04;46.16;100139.34;5034036;28;20072;-67
2023/06/28 05:26:07;;;;;;;3.25;2.05;;;;;;;23.04;46.17;100141.22;5034115;28;20099;-66
2023/06/28 05:28:35;;;;;;;4.68;2.00;;;;;;;23.04;46.14;100138.50;5029519;28;20498;-67
2023/06/28 05:31:04;;;;;;;3.65;2.00;;;;;;;23.04;45.99;100144.78;5033875;28;20499;-67
2023/06/28 05:33:32;;;;;;;3.60;1.92;;;;;;;23.05;46.14;100140.19;5034412;28;20049;-67
2023/06/28 05:36:00;;;;;;;4.05;2.08;;;;;;;23.04;46.19;100141.22;5034300;28;20055;-67
2023/06/28 05:38:28;;;;;;;5.28;2.05;;;;;;;23.04;46.31;100138.50;5034456;28;20041;-64
2023/06/28 05:41:12;;;;;;;4.45;1.85;;;;;;;23.04;46.29;100138.50;5031956;28;20098;-68
2023/06/28 05:43:42;;;;;;;4.75;1.92;;;;;;;23.05;46.17;100145.63;5026974;28;20140;-67
2023/06/28 05:46:10;;;;;;;3.17;1.73;;;;;;;23.06;46.13;100148.19;5028572;28;20041;-68
2023/06/28 05:48:39;;;;;;;4.05;1.70;;;;;;;23.07;46.30;100138.16;5028052;28;20103;-68
2023/06/28 05:51:09;;;;;;;3.22;1.67;;;;;;;23.06;46.30;100140.00;5032945;28;20487;-67
2023/06/28 05:53:38;;;;;;;4.00;2.20;;;;;;;23.06;46.38;100142.75;5030418;28;20486;-67
2023/06/28 05:56:08;;;;;;;3.10;1.90;;;;;;;23.07;46.39;100138.16;5034218;28;20064;-67
2023/06/28 05:58:36;;;;;;;3.15;1.70;;;;;;;23.07;46.45;100133.59;5033695;28;20080;-67
2023/06/28 06:01:06;;;;;;;3.38;1.80;;;;;;;23.08;46.36;100138.00;5033722;28;20737;-69
2023/06/28 06:03:35;;;;;;;4.72;2.03;;;;;;;23.09;46.18;100141.56;5033850;28;20053;-68
2023/06/28 06:06:03;;;;;;;4.97;1.85;;;;;;;23.07;46.39;100140.91;5033925;28;20049;-68
2023/06/28 06:08:31;;;;;;;3.25;1.77;;;;;;;23.09;46.32;100147.00;5033807;28;20108;-68
2023/06/28 06:10:59;;;;;;;5.70;2.15;;;;;;;23.08;46.52;100153.47;5033671;28;20057;-68
2023/06/28 06:13:29;;;;;;;3.45;1.80;;;;;;;23.08;46.38;100153.47;5032043;28;20453;-67
2023/06/28 06:15:57;;;;;;;4.03;1.70;;;;;;;23.08;46.45;100150.75;5033600;28;20053;-67
2023/06/28 06:18:25;;;;;;;2.95;1.80;;;;;;;23.08;46.45;100156.19;5033251;28;20071;-67
2023/06/28 06:20:53;;;;;;;3.60;1.80;;;;;;;23.07;46.22;100162.66;5032935;28;20128;-67
2023/06/28 06:23:21;;;;;;;4.38;1.88;;;;;;;23.05;46.19;100172.84;5032787;28;20037;-67
2023/06/28 06:25:49;;;;;;;4.45;1.83;;;;;;;23.04;46.17;100169.28;5032634;28;20103;-67
2023/06/28 06:28:18;;;;;;;2.72;1.73;;;;;;;23.03;46.20;100167.56;5033280;28;20060;-68
2023/06/28 06:30:47;;;;;;;4.05;1.83;;;;;;;23.04;46.26;100176.59;5033066;28;20403;-67
2023/06/28 06:33:16;;;;;;;3.42;1.88;;;;;;;23.04;46.05;100182.03;5033138;28;20045;-67
2023/06/28 06:35:44;;;;;;;3.60;1.80;;;;;;;23.04;46.12;100176.59;5033107;28;20480;-66
2023/06/28 06:38:12;;;;;;;5.07;1.90;;;;;;;23.03;46.21;100189.34;5033127;28;20128;-66
2023/06/28 06:40:40;;;;;;;5.13;1.80;;;;;;;23.01;46.09;100194.09;5032833;28;20453;-67
2023/06/28 06:43:09;;;;;;;3.58;1.80;;;;;;;23.03;45.99;100193.94;5033208;28;20053;-67
2023/06/28 06:45:37;;;;;;;5.43;1.70;;;;;;;23.02;45.99;100200.41;5032573;28;20045;-66
2023/06/28 06:48:07;;;;;;;3.58;1.70;;;;;;;23.03;45.92;100191.22;5029740;28;20121;-66
2023/06/28 06:50:35;;;;;;;3.47;1.80;;;;;;;23.04;46.01;100198.34;5032472;28;20049;-67
2023/06/28 06:53:03;;;;;;;4.10;1.98;;;;;;;23.05;45.90;100208.19;5032278;28;20473;-67
2023/06/28 06:55:31;;;;;;;3.72;1.70;;;;;;;23.06;46.17;100210.75;5032460;28;20069;-66
2023/06/28 06:58:00;;;;;;;4.00;1.70;;;;;;;23.05;45.97;100202.75;5032614;28;20548;-67
2023/06/28 07:00:28;;;;;;;3.80;1.75;;;;;;;23.04;46.03;100195.63;5032462;28;20041;-66
2023/06/28 07:02:56;;;;;;;3.92;1.70;;;;;;;23.04;45.84;100195.63;5032599;28;20053;-67
2023/06/28 07:05:25;;;;;;;4.05;1.80;;;;;;;23.04;45.96;100199.19;5032609;28;20045;-67
2023/06/28 07:07:54;;;;;;;2.88;1.70;;;;;;;23.05;45.88;100200.03;5032276;28;20045;-67
2023/06/28 07:10:22;;;;;;;3.20;1.60;;;;;;;23.05;45.92;100205.47;5032662;28;20057;-67
2023/06/28 07:12:50;;;;;;;4.97;1.63;;;;;;;23.03;45.72;100208.38;5032450;28;20076;-66
2023/06/28 07:15:19;;;;;;;3.83;1.67;;;;;;;23.03;45.84;100199.38;5032055;28;20099;-68
2023/06/28 07:17:47;;;;;;;3.45;1.70;;;;;;;23.02;45.60;100205.84;5031597;28;20411;-67
2023/06/28 07:20:16;;;;;;;3.22;1.70;;;;;;;23.03;45.80;100208.38;5031880;28;20045;-66
2023/06/28 07:22:45;;;;;;;4.25;1.65;;;;;;;23.04;46.10;100210.06;5030971;28;20059;-67
2023/06/28 07:25:14;;;;;;;4.50;1.77;;;;;;;23.04;45.89;100210.06;5031791;28;20052;-67
2023/06/28 07:27:42;;;;;;;3.85;1.67;;;;;;;23.05;45.77;100211.78;5032416;28;20073;-67
2023/06/28 07:30:11;;;;;;;2.35;1.52;;;;;;;23.03;45.82;100208.38;5032001;28;20057;-67
2023/06/28 07:32:39;;;;;;;3.28;1.50;;;;;;;23.02;45.92;100205.84;5032005;28;20045;-67
2023/06/28 07:35:08;;;;;;;5.32;1.60;;;;;;;23.02;45.90;100208.56;5031735;28;20144;-67
2023/06/28 07:37:36;;;;;;;3.97;1.67;;;;;;;23.00;45.78;100205.16;5032119;28;20103;-68
2023/06/28 07:40:08;;;;;;;3.08;1.60;;;;;;;23.00;45.76;100213.31;5031952;28;20054;-67
2023/06/28 07:42:36;;;;;;;2.97;1.48;;;;;;;23.00;45.72;100216.06;5031836;28;20386;-68
2023/06/28 07:45:08;;;;;;;2.55;1.40;;;;;;;23.00;45.71;100208.75;5031702;28;20502;-67
2023/06/28 07:47:37;;;;;;;3.70;1.40;;;;;;;23.01;45.70;100212.31;5031485;28;20080;-67
2023/06/28 07:50:09;;;;;;;4.18;1.60;;;;;;;23.01;45.44;100220.47;5031899;28;20057;-68
2023/06/28 07:52:38;;;;;;;5.18;1.60;;;;;;;23.00;45.44;100216.91;5031332;28;20526;-68
2023/06/28 07:55:10;;;;;;;3.10;1.63;;;;;;;22.99;45.62;100217.06;5031725;28;20458;-67
2023/06/28 07:57:38;;;;;;;5.20;1.50;;;;;;;22.99;45.75;100217.94;5031472;28;20064;-68
2023/06/28 08:00:09;;;;;;;3.85;1.60;;;;;;;22.99;45.60;100217.06;5031536;28;20056;-68
2023/06/28 08:02:38;;;;;;;4.07;1.55;;;;;;;22.98;45.69;100205.34;5031697;28;20340;-68
2023/06/28 08:05:07;;;;;;;5.00;1.67;;;;;;;22.98;45.63;100204.50;5031435;28;20041;-68
2023/06/28 08:07:36;;;;;;;3.70;1.80;;;;;;;22.98;45.48;100210.78;5031561;28;20088;-67
2023/06/28 08:10:05;;;;;;;3.97;1.58;;;;;;;22.98;45.33;100215.38;5031530;28;20072;-67
2023/06/28 08:12:34;;;;;;;3.42;1.60;;;;;;;22.96;45.06;100210.09;5031393;28;20077;-67
2023/06/28 08:15:02;;;;;;;3.95;1.55;;;;;;;22.96;45.17;100211.97;5031242;28;20068;-67
2023/06/28 08:17:32;;;;;;;4.32;1.75;;;;;;;22.95;45.19;100202.94;5031438;28;20057;-67
2023/06/28 08:20:00;;;;;;;4.97;1.50;;;;;;;22.96;45.17;100201.09;5031366;28;20433;-67
2023/06/28 08:22:28;;;;;;;5.10;1.45;;;;;;;22.96;44.94;100210.09;5031239;28;20056;-67
2023/06/28 08:24:56;;;;;;;4.78;1.60;;;;;;;22.96;44.89;100199.22;5030929;28;20053;-67
2023/06/28 08:27:24;;;;;;;3.60;1.50;;;;;;;22.97;44.89;100202.78;5031143;28;20926;-67
2023/06/28 08:29:54;;;;;;;2.70;1.42;;;;;;;22.98;44.78;100202.63;5030857;28;20506;-67
2023/06/28 08:32:22;;;;;;;3.78;1.48;;;;;;;22.98;44.88;100205.34;5031414;28;20045;-67
2023/06/28 08:34:53;;;;;;;3.70;1.45;;;;;;;22.99;44.75;100211.63;5031142;28;20068;-67
2023/06/28 08:37:21;;;;;;;2.67;1.45;;;;;;;22.98;44.65;100204.50;5030477;28;20050;-67
2023/06/28 08:39:49;;;;;;;3.85;1.40;;;;;;;22.97;44.83;100197.34;5030973;28;20085;-68
2023/06/28 08:42:19;;;;;;;3.30;1.40;;;;;;;22.98;44.83;100205.34;5031385;28;20053;-68
2023/06/28 08:44:49;;;;;;;2.70;1.40;;;;;;;22.99;44.81;100214.34;5031172;28;20459;-68
2023/06/28 08:47:19;;;;;;;3.25;1.20;;;;;;;22.99;44.72;100215.19;5031061;28;20472;-68
2023/06/28 08:49:48;;;;;;;3.40;1.45;;;;;;;22.98;44.88;100204.50;5031025;28;20091;-67
2023/06/28 08:52:16;;;;;;;3.22;1.42;;;;;;;23.00;44.98;100202.44;5013216;28;20056;-67
2023/06/28 08:54:45;;;;;;;3.78;1.48;;;;;;;23.01;44.95;100204.16;5030823;28;20104;-67
2023/06/28 08:57:16;;;;;;;2.47;1.40;;;;;;;23.03;45.09;100205.66;5031168;28;20069;-68
2023/06/28 08:59:45;;;;;;;2.95;1.40;;;;;;;23.05;45.03;100194.59;5030829;28;20100;-67
2023/06/28 09:02:16;;;;;;;3.78;1.60;;;;;;;23.05;45.06;100195.44;5030904;28;20180;-67
2023/06/28 09:04:48;;;;;;;3.45;1.30;;;;;;;23.09;44.88;100195.97;5030840;28;20049;-68
2023/06/28 09:07:18;;;;;;;4.05;1.40;;;;;;;23.08;45.03;100194.28;5030856;28;20117;-68
2023/06/28 09:09:48;;;;;;;4.10;1.50;;;;;;;23.08;44.92;100194.28;5030904;28;20103;-66
2023/06/28 09:12:17;;;;;;;5.10;1.80;;;;;;;23.07;45.30;100192.56;5030685;28;20095;-67
2023/06/28 09:14:45;;;;;;;3.50;1.60;;;;;;;23.07;45.02;100189.84;5030531;28;20128;-67
2023/06/28 09:17:13;;;;;;;4.95;1.50;;;;;;;23.09;45.08;100185.09;5030825;28;20073;-67
2023/06/28 09:19:41;;;;;;;2.85;1.40;;;;;;;23.11;44.94;100188.47;5030795;28;20474;-66
2023/06/28 09:22:11;;;;;;;4.43;1.50;;;;;;;23.13;44.87;100191.84;5030553;28;20046;-69
2023/06/28 09:24:40;;;;;;;3.45;1.50;;;;;;;23.12;44.90;100184.72;5030557;28;20479;-68
2023/06/28 09:27:08;;;;;;;2.60;1.42;;;;;;;23.13;44.83;100191.84;5030686;28;20065;-67
2023/06/28 09:29:37;;;;;;;3.88;1.80;;;;;;;23.13;44.84;100189.13;5030503;28;20502;-67
2023/06/28 09:32:06;;;;;;;3.97;1.48;;;;;;;23.13;44.95;100178.25;5030430;28;20053;-66
2023/06/28 09:34:36;;;;;;;2.72;1.50;;;;;;;23.14;44.77;100177.22;5030677;28;20045;-68
2023/06/28 09:37:05;;;;;;;3.35;1.40;;;;;;;23.14;44.68;100166.34;5030741;28;20052;-69
2023/06/28 09:39:37;;;;;;;3.83;1.77;;;;;;;23.16;44.77;100180.63;5030577;28;20533;-69
2023/06/28 09:42:06;;;;;;;4.28;1.85;;;;;;;23.14;44.45;100167.19;5030845;28;20061;-68
2023/06/28 09:44:35;;;;;;;3.60;1.45;;;;;;;23.15;44.51;100165.31;5030519;28;20042;-68
2023/06/28 09:47:04;;;;;;;3.35;1.40;;;;;;;23.16;44.48;100155.28;5030719;28;20049;-68
2023/06/28 09:49:33;;;;;;;2.55;1.50;;;;;;;23.17;44.26;100174.19;5033518;28;20049;-68
2023/06/28 09:52:02;;;;;;;4.28;1.55;;;;;;;23.16;43.83;100164.28;5033999;28;20145;-68
2023/06/28 09:54:32;;;;;;;2.25;1.40;;;;;;;23.17;43.83;100166.03;5033943;28;20045;-68
2023/06/28 09:57:03;;;;;;;3.33;1.50;;;;;;;23.19;43.86;100158.53;5033899;28;20080;-67
2023/06/28 09:59:33;;;;;;;3.08;1.45;;;;;;;23.21;44.06;100167.34;5033660;28;20083;-68
2023/06/28 10:02:05;;;;;;;;;;;;;;;23.21;44.07;100156.47;5034270;28;20061;-68
2023/06/28 10:04:35;;;;;;;2.53;1.40;;;;;;;23.24;44.06;100152.53;5033770;28;19920;-68
2023/06/28 10:07:05;;;;;;;4.50;1.40;;;;;;;23.25;43.99;100163.25;5033691;28;20382;-67
2023/06/28 10:09:36;;;;;;;3.33;1.40;;;;;;;23.27;43.93;100154.94;5033634;28;20080;-68
2023/06/28 10:12:10;;;;;;;3.53;1.35;;;;;;;23.27;44.16;100161.22;5033789;28;20045;-68
2023/06/28 10:14:42;;;;;;;2.80;1.42;;;;;;;23.30;44.19;100152.69;5033429;28;20049;-68
2023/06/28 10:17:11;;;;;;;2.75;1.40;;;;;;;23.31;44.51;100151.66;5033471;28;20050;-67
2023/06/28 10:19:40;;;;;;;2.20;1.38;;;;;;;23.33;44.24;100137.88;5033445;28;20513;-68
2023/06/28 10:22:09;;;;;;;2.08;1.17;;;;;;;23.34;44.37;100151.31;5033407;28;20224;-68
2023/06/28 10:24:38;;;;;;;3.92;1.48;;;;;;;23.36;44.57;100153.88;5033621;28;20111;-68
2023/06/28 10:27:09;;;;;;;3.33;1.30;;;;;;;23.39;44.46;100148.06;5033384;28;20049;-67
2023/06/28 10:29:40;;;;;;;2.40;1.30;;;;;;;23.39;44.33;100138.03;5033308;28;20071;-67
2023/06/28 10:32:10;;;;;;;3.28;1.50;;;;;;;23.40;44.12;100134.28;5033161;28;20057;-68
2023/06/28 10:34:39;;;;;;;2.50;1.30;;;;;;;23.42;44.18;100134.94;5033328;28;20160;-68
2023/06/28 10:37:07;;;;;;;2.40;1.20;;;;;;;23.46;43.99;100129.16;5033127;28;20136;-67
2023/06/28 10:39:36;;;;;;;3.00;1.58;;;;;;;23.47;43.33;100128.13;5033285;28;20067;-67
2023/06/28 10:42:05;;;;;;;4.30;1.65;;;;;;;23.49;43.14;100126.06;5033115;28;20077;-67
2023/06/28 10:44:34;;;;;;;2.25;1.30;;;;;;;23.49;42.85;100120.63;5033090;28;20045;-67
2023/06/28 10:47:10;;;;;;;3.00;1.45;;;;;;;23.50;42.73;100130.47;5033058;28;20474;-69
2023/06/28 10:49:40;;;;;;;2.88;1.40;;;;;;;23.52;42.80;100120.25;5033478;28;20042;-68
2023/06/28 10:52:14;;;;;;;3.13;1.35;;;;;;;23.54;42.37;100118.19;5032897;28;20058;-68
2023/06/28 10:54:42;;;;;;;2.72;1.27;;;;;;;23.55;42.02;100119.91;5032980;28;20046;-68
2023/06/28 10:57:11;;;;;;;2.17;1.40;;;;;;;23.57;41.79;100121.44;5032735;28;20045;-68
2023/06/28 10:59:42;;;;;;;3.03;1.27;;;;;;;23.60;41.99;100117.53;5032147;28;20041;-67
2023/06/28 11:02:10;;;;;;;3.25;1.70;;;;;;;23.62;42.16;100112.75;5032689;28;20056;-68
2023/06/28 11:04:51;;;;;;;2.42;1.25;;;;;;;23.64;42.49;100107.94;5032800;28;20099;-67
2023/06/28 11:07:23;;;;;;;2.40;1.45;;;;;;;23.66;42.46;100108.66;5032807;28;20127;-67
2023/06/28 11:10:14;;;;;;;3.05;1.50;;;;;;;23.70;42.67;100109.97;5032607;28;20049;-68
2023/06/28 11:12:42;;;;;;;2.70;1.48;;;;;;;23.73;42.87;100104.16;5032194;28;20544;-67
2023/06/28 11:15:14;;;;;;;5.72;1.50;;;;;;;23.75;43.11;100113.00;5032557;28;20459;-67
2023/06/28 11:17:43;;;;;;;2.42;1.38;;;;;;;23.78;42.74;100115.38;5032590;28;20056;-67
2023/06/28 11:20:12;;;;;;;3.28;1.40;;;;;;;23.83;42.84;100110.19;5032694;28;20045;-67
2023/06/28 11:22:52;;;;;;;2.50;1.40;;;;;;;23.85;43.13;100107.31;5032195;28;20057;-67
2023/06/28 11:25:22;;;;;;;3.97;1.40;;;;;;;23.86;42.97;100104.41;5032512;28;20411;-67
2023/06/28 11:27:52;;;;;;;3.33;1.33;;;;;;;23.89;42.98;100112.22;5032236;28;20042;-68
2023/06/28 11:30:50;;;;;;;2.90;1.33;;;;;;;23.93;43.00;100107.22;5032402;28;20050;-67
2023/06/28 11:33:19;;;;;;;2.58;1.27;;;;;;;23.96;42.97;100091.41;5031918;28;20060;-67